Time;durP1;ratioP1;P1;durP2;ratioP2;P2;SDS_P1;SDS_P2;PMS_P1;PMS_P2;Temp;Humidity;BMP_temperature;BMP_pressure;BME280_temperature;BME280_humidity;BME280_pressure;Samples;Min_cycle;Max_cycle;Signal;HPM_P1;HPM_P2
2023/05/19 00:01:31;;;;;;;5.50;2.13;;;7.50;99.90;;;;;;5045966;28;20040;-83
2023/05/19 00:04:01;;;;;;;10.63;2.88;;;7.50;99.90;;;;;;5047740;28;20041;-83
2023/05/19 00:06:32;;;;;;;10.50;2.60;;;7.60;99.90;;;;;;5046559;28;20045;-83
2023/05/19 00:08:57;;;;;;;8.38;2.70;;;7.80;99.90;;;;;;5048020;28;20093;-84
2023/05/19 00:11:25;;;;;;;12.43;2.47;;;7.60;99.90;;;;;;5046830;28;20044;-83
2023/05/19 00:13:53;;;;;;;3.88;1.88;;;7.60;99.90;;;;;;5047372;28;20501;-83
2023/05/19 00:16:19;;;;;;;7.85;2.40;;;7.60;99.90;;;;;;5064398;28;20367;-83
2023/05/19 00:18:47;;;;;;;5.95;1.95;;;7.60;99.90;;;;;;5062186;28;20090;-84
2023/05/19 00:21:12;;;;;;;10.73;2.55;;;8.30;99.90;;;;;;5063908;28;20044;-83
2023/05/19 00:23:38;;;;;;;5.25;2.28;;;8.00;99.90;;;;;;5062855;28;20055;-84
2023/05/19 00:26:04;;;;;;;13.50;2.45;;;9.40;99.90;;;;;;5063690;28;20118;-84
2023/05/19 00:28:30;;;;;;;8.00;2.13;;;7.80;99.90;;;;;;5046402;28;20053;-84
2023/05/19 00:30:55;;;;;;;5.90;1.83;;;8.90;99.90;;;;;;5063363;28;20075;-84
2023/05/19 00:33:21;;;;;;;9.57;1.92;;;7.80;99.90;;;;;;5046880;28;20048;-84
2023/05/19 00:35:47;;;;;;;7.65;2.03;;;7.80;99.90;;;;;;5045207;28;20048;-83
2023/05/19 00:38:13;;;;;;;7.20;2.17;;;7.80;99.90;;;;;;5063650;28;20076;-84
2023/05/19 00:40:39;;;;;;;10.88;1.95;;;8.30;99.90;;;;;;5061793;28;20041;-84
2023/05/19 00:43:04;;;;;;;7.20;2.08;;;7.90;99.90;;;;;;5063768;28;20397;-84
2023/05/19 00:45:30;;;;;;;7.53;2.25;;;7.90;99.90;;;;;;5045947;28;20462;-84
2023/05/19 00:47:56;;;;;;;8.73;2.58;;;7.90;99.90;;;;;;5046652;28;20126;-84
2023/05/19 00:50:27;;;;;;;8.70;2.00;;;8.00;99.90;;;;;;5063263;28;20080;-83
2023/05/19 00:52:53;;;;;;;14.55;2.20;;;7.90;99.90;;;;;;5061608;28;20055;-84
2023/05/19 00:55:22;;;;;;;12.63;2.20;;;8.80;99.90;;;;;;5030440;28;20319;-84
2023/05/19 00:57:49;;;;;;;5.22;2.28;;;7.90;99.90;;;;;;5045323;28;20342;-84
2023/05/19 01:00:15;;;;;;;9.88;1.88;;;7.90;99.90;;;;;;5062368;28;20119;-83
2023/05/19 01:02:42;;;;;;;9.18;1.80;;;7.90;99.90;;;;;;5062457;28;20051;-84
2023/05/19 01:05:08;;;;;;;13.63;2.00;;;8.10;99.90;;;;;;5029145;28;20040;-83
2023/05/19 01:07:35;;;;;;;10.32;1.95;;;7.90;99.90;;;;;;5062594;28;20072;-84
2023/05/19 01:10:01;;;;;;;9.48;2.00;;;9.20;99.90;;;;;;5044395;28;20097;-84
2023/05/19 01:12:28;;;;;;;4.53;1.58;;;8.70;99.90;;;;;;5062827;28;20036;-84
2023/05/19 01:14:55;;;;;;;12.02;1.83;;;7.90;99.90;;;;;;5028176;28;20092;-83
2023/05/19 01:17:28;;;;;;;6.90;1.98;;;8.60;99.90;;;;;;5063268;28;20049;-84
2023/05/19 01:19:56;;;;;;;3.22;1.90;;;7.80;99.90;;;;;;5062316;28;20048;-83
2023/05/19 01:22:28;;;;;;;8.15;2.17;;;7.80;99.90;;;;;;5062181;28;20383;-83
2023/05/19 01:24:59;;;;;;;10.43;2.33;;;7.80;99.90;;;;;;5063065;28;20052;-83
2023/05/19 01:27:40;;;;;;;8.88;2.03;;;7.80;99.90;;;;;;5060646;28;20052;-84
2023/05/19 01:30:29;;;;;;;11.63;2.30;;;7.80;99.90;;;;;;5046221;28;20636;-83
2023/05/19 01:33:01;;;;;;;7.63;1.85;;;7.80;99.90;;;;;;5062385;28;20051;-83
2023/05/19 01:35:28;;;;;;;7.20;1.90;;;8.60;99.90;;;;;;5045314;28;20378;-83
2023/05/19 01:37:56;;;;;;;4.90;1.80;;;7.90;99.90;;;;;;5062641;28;20028;-83
2023/05/19 01:40:23;;;;;;;5.45;2.05;;;8.60;99.90;;;;;;5044313;28;20049;-83
2023/05/19 01:42:51;;;;;;;11.43;1.90;;;7.60;99.90;;;;;;5063261;28;20059;-83
2023/05/19 01:45:18;;;;;;;12.57;2.38;;;8.10;99.90;;;;;;5045049;28;20406;-83
2023/05/19 01:47:47;;;;;;;8.30;2.03;;;8.30;99.90;;;;;;5062722;28;20044;-83
2023/05/19 01:50:12;;;;;;;6.40;2.22;;;7.80;99.90;;;;;;5062326;28;20029;-83
2023/05/19 01:52:38;;;;;;;7.47;1.60;;;8.50;99.90;;;;;;5044159;28;20051;-83
2023/05/19 01:55:05;;;;;;;9.77;2.15;;;7.60;99.90;;;;;;5062399;28;20055;-82
2023/05/19 01:57:54;;;;;;;5.65;1.50;;;7.60;99.90;;;;;;5044185;28;20036;-83
2023/05/19 02:00:50;;;;;;;7.88;1.67;;;7.50;99.90;;;;;;5063059;28;20486;-83
2023/05/19 02:03:37;;;;;;;5.97;1.75;;;7.80;99.90;;;;;;5062197;28;20058;-83
2023/05/19 02:06:38;;;;;;;10.07;1.58;;;7.50;99.90;;;;;;5043965;28;20041;-82
2023/05/19 02:09:14;;;;;;;9.32;2.50;;;7.30;99.90;;;;;;5001142;28;20129;-83
2023/05/19 02:11:48;;;;;;;8.18;1.88;;;7.50;99.90;;;;;;5054038;28;20385;-83
2023/05/19 02:14:19;;;;;;;7.13;2.00;;;7.90;99.90;;;;;;5065023;28;20040;-82
2023/05/19 02:16:47;;;;;;;11.80;1.85;;;7.50;99.90;;;;;;5050011;28;20058;-83
2023/05/19 02:19:21;;;;;;;6.38;1.75;;;7.50;99.90;;;;;;5065038;28;20048;-83
2023/05/19 02:21:47;;;;;;;7.75;1.95;;;7.50;99.90;;;;;;5049902;28;20394;-83
2023/05/19 02:24:12;;;;;;;13.43;2.40;;;7.40;99.90;;;;;;5066104;28;20041;-82
2023/05/19 02:26:39;;;;;;;6.68;2.03;;;7.40;99.90;;;;;;5064300;28;20333;-83
2023/05/19 02:29:05;;;;;;;9.35;1.80;;;7.40;99.90;;;;;;5066158;28;20071;-83
2023/05/19 02:31:30;;;;;;;3.88;1.55;;;8.40;99.90;;;;;;5030881;28;20493;-82
2023/05/19 02:33:56;;;;;;;11.45;1.75;;;8.20;99.90;;;;;;5032638;28;20036;-83
2023/05/19 02:36:22;;;;;;;7.32;1.48;;;8.50;99.90;;;;;;5064335;28;20052;-83
2023/05/19 02:38:47;;;;;;;6.55;1.65;;;7.70;99.90;;;;;;5049484;28;20045;-83
2023/05/19 02:41:13;;;;;;;10.32;2.33;;;7.40;99.90;;;;;;5048541;28;20041;-83
2023/05/19 02:43:39;;;;;;;9.68;2.67;;;7.40;99.90;;;;;;5048380;28;20047;-83
2023/05/19 02:46:04;;;;;;;12.43;2.30;;;8.80;99.90;;;;;;5065567;28;20040;-83
2023/05/19 02:48:30;;;;;;;6.00;1.80;;;7.40;99.90;;;;;;5047122;28;20413;-83
2023/05/19 02:50:56;;;;;;;6.55;1.73;;;7.40;99.90;;;;;;5049020;28;20040;-83
2023/05/19 02:53:21;;;;;;;9.30;2.20;;;7.40;99.90;;;;;;5014228;28;20048;-83
2023/05/19 02:55:47;;;;;;;7.40;2.35;;;7.40;99.90;;;;;;5066351;28;20124;-82
2023/05/19 02:58:12;;;;;;;6.18;1.67;;;7.40;99.90;;;;;;5047952;28;20477;-84
2023/05/19 03:00:38;;;;;;;4.47;2.03;;;8.80;99.90;;;;;;5064646;28;20480;-84
2023/05/19 03:03:04;;;;;;;14.38;1.92;;;7.60;99.90;;;;;;5065024;28;20052;-84
2023/05/19 03:05:30;;;;;;;10.52;2.25;;;8.90;99.90;;;;;;5046755;28;20048;-84
2023/05/19 03:07:55;;;;;;;9.23;2.20;;;7.30;99.90;;;;;;5048754;28;20155;-84
2023/05/19 03:10:21;;;;;;;12.85;2.20;;;8.30;99.90;;;;;;5063484;28;20076;-84
2023/05/19 03:12:47;;;;;;;8.68;2.75;;;7.20;99.90;;;;;;5066164;28;20514;-84
2023/05/19 03:15:13;;;;;;;5.80;2.03;;;7.10;99.90;;;;;;5047701;28;20112;-84
2023/05/19 03:17:39;;;;;;;8.23;1.90;;;7.10;99.90;;;;;;5048049;28;20131;-84
2023/05/19 03:20:06;;;;;;;6.10;1.75;;;8.30;99.90;;;;;;5064735;28;20076;-83
2023/05/19 03:22:32;;;;;;;11.27;2.17;;;7.10;99.90;;;;;;5029131;28;20643;-83
2023/05/19 03:24:58;;;;;;;8.57;2.25;;;7.10;99.90;;;;;;5031420;28;20139;-84
2023/05/19 03:27:23;;;;;;;11.73;2.22;;;7.40;99.90;;;;;;5063350;28;20123;-84
2023/05/19 03:29:49;;;;;;;3.00;1.77;;;7.00;99.90;;;;;;5048614;28;20045;-83
2023/05/19 03:32:15;;;;;;;10.65;2.45;;;7.70;99.90;;;;;;5063871;28;20103;-84
2023/05/19 03:34:41;;;;;;;12.27;2.40;;;8.10;99.90;;;;;;5048335;28;20045;-84
2023/05/19 03:37:06;;;;;;;11.20;2.45;;;7.10;99.90;;;;;;5064344;28;20470;-84
2023/05/19 03:39:32;;;;;;;8.00;2.63;;;7.10;99.90;;;;;;5063601;28;20333;-84
2023/05/19 03:41:58;;;;;;;12.32;2.35;;;7.10;99.90;;;;;;5048580;28;20355;-84
2023/05/19 03:44:24;;;;;;;7.20;1.88;;;7.10;99.90;;;;;;5063742;28;20051;-84
2023/05/19 03:46:49;;;;;;;5.45;2.03;;;8.60;99.90;;;;;;5031748;28;20493;-84
2023/05/19 03:49:15;;;;;;;10.00;2.22;;;7.00;99.90;;;;;;5046533;28;20051;-82
2023/05/19 03:51:41;;;;;;;10.10;2.58;;;7.00;99.90;;;;;;5047859;28;20044;-83
2023/05/19 03:54:07;;;;;;;13.55;3.20;;;8.50;99.90;;;;;;5047176;28;20040;-83
2023/05/19 03:56:33;;;;;;;6.90;2.03;;;7.30;99.90;;;;;;5046651;28;20044;-83
2023/05/19 03:58:59;;;;;;;12.25;2.22;;;8.10;99.90;;;;;;5047606;28;20059;-83
2023/05/19 04:01:24;;;;;;;8.60;2.88;;;7.70;99.90;;;;;;5045929;28;20353;-83
2023/05/19 04:03:50;;;;;;;4.97;2.00;;;7.00;99.90;;;;;;5048078;28;20052;-83
2023/05/19 04:06:16;;;;;;;9.23;2.80;;;7.10;99.90;;;;;;5045929;28;20044;-83
2023/05/19 04:08:43;;;;;;;8.23;2.72;;;7.10;99.90;;;;;;5064373;28;20166;-83
2023/05/19 04:11:08;;;;;;;10.00;2.65;;;7.60;99.90;;;;;;5047668;28;20117;-83
2023/05/19 04:13:34;;;;;;;5.72;2.20;;;7.00;99.90;;;;;;5062674;28;20545;-83
2023/05/19 04:16:00;;;;;;;9.73;2.58;;;7.00;99.90;;;;;;5047606;28;20086;-83
2023/05/19 04:18:26;;;;;;;8.55;2.40;;;7.10;99.90;;;;;;5029179;28;20395;-84
2023/05/19 04:20:51;;;;;;;8.23;2.15;;;7.10;99.90;;;;;;5064460;28;20193;-83
2023/05/19 04:23:17;;;;;;;9.77;2.25;;;8.80;99.90;;;;;;5046110;28;20051;-83
2023/05/19 04:25:43;;;;;;;6.20;2.28;;;7.50;99.90;;;;;;5063960;28;20056;-83
2023/05/19 04:28:08;;;;;;;7.63;1.98;;;7.20;99.90;;;;;;5063313;28;20070;-83
2023/05/19 04:30:35;;;;;;;7.50;2.05;;;7.70;99.90;;;;;;5046077;28;20372;-83
2023/05/19 04:33:03;;;;;;;7.82;2.03;;;7.40;99.90;;;;;;5047094;28;20053;-84
2023/05/19 04:35:29;;;;;;;7.85;3.03;;;8.00;99.90;;;;;;5061743;28;20485;-84
2023/05/19 04:37:54;;;;;;;7.28;2.38;;;7.50;99.90;;;;;;5030872;28;20057;-83
2023/05/19 04:40:22;;;;;;;6.20;2.60;;;8.60;99.90;;;;;;5028753;28;20044;-83
2023/05/19 04:42:51;;;;;;;8.63;2.47;;;8.40;99.90;;;;;;5047918;28;20044;-84
2023/05/19 04:45:17;;;;;;;5.43;2.80;;;7.60;99.90;;;;;;5046531;28;20429;-84
2023/05/19 04:47:43;;;;;;;9.02;2.80;;;8.20;99.90;;;;;;5045822;28;20040;-83
2023/05/19 04:50:10;;;;;;;13.88;3.15;;;7.70;99.90;;;;;;5063601;28;20086;-83
2023/05/19 04:52:36;;;;;;;11.23;3.22;;;7.80;99.90;;;;;;5044443;28;20048;-83
2023/05/19 04:55:02;;;;;;;10.82;2.75;;;7.40;99.90;;;;;;5063642;28;20363;-84
2023/05/19 04:57:28;;;;;;;9.65;2.95;;;8.10;99.90;;;;;;5061338;28;20517;-83
2023/05/19 04:59:58;;;;;;;7.43;3.58;;;8.20;99.90;;;;;;5046638;28;20075;-84
2023/05/19 05:02:27;;;;;;;14.43;3.30;;;8.40;99.90;;;;;;5046843;28;20387;-84
2023/05/19 05:04:55;;;;;;;8.30;3.63;;;8.50;99.90;;;;;;5061858;28;20044;-84
2023/05/19 05:07:21;;;;;;;13.50;3.15;;;8.60;99.90;;;;;;5030255;28;20632;-84
2023/05/19 05:09:47;;;;;;;10.20;3.17;;;8.70;99.90;;;;;;5027991;28;20036;-84
2023/05/19 05:12:14;;;;;;;9.52;2.80;;;8.80;99.90;;;;;;5063207;28;20062;-84
2023/05/19 05:14:40;;;;;;;8.73;3.13;;;7.80;99.90;;;;;;5061644;28;20529;-84
2023/05/19 05:17:06;;;;;;;7.85;3.25;;;9.10;99.90;;;;;;5063237;28;20056;-84
2023/05/19 05:19:33;;;;;;;5.88;2.95;;;9.20;99.90;;;;;;5062215;28;20056;-84
2023/05/19 05:21:59;;;;;;;8.38;3.50;;;9.30;99.90;;;;;;5063076;28;20049;-83
2023/05/19 05:24:25;;;;;;;10.57;3.72;;;9.40;99.90;;;;;;5046060;28;20053;-84
2023/05/19 05:26:51;;;;;;;9.73;3.10;;;9.50;99.90;;;;;;5060536;28;20137;-84
2023/05/19 05:29:17;;;;;;;12.02;4.00;;;9.60;99.90;;;;;;5062953;28;20048;-84
2023/05/19 05:31:42;;;;;;;9.60;3.17;;;9.70;99.90;;;;;;5061359;28;20047;-84
2023/05/19 05:34:08;;;;;;;10.98;3.45;;;9.80;99.90;;;;;;5064404;28;20041;-84
2023/05/19 05:36:34;;;;;;;12.90;3.80;;;9.90;99.90;;;;;;5061888;28;20593;-84
2023/05/19 05:39:01;;;;;;;4.93;3.10;;;10.00;99.90;;;;;;5062271;28;20130;-84
2023/05/19 05:41:33;;;;;;;8.27;3.67;;;10.10;99.90;;;;;;5062411;28;20559;-83
2023/05/19 05:44:00;;;;;;;9.07;3.20;;;10.20;99.90;;;;;;5060801;28;20546;-83
2023/05/19 05:46:25;;;;;;;8.88;3.22;;;10.30;99.90;;;;;;5065200;28;20098;-83
2023/05/19 05:48:51;;;;;;;21.70;3.67;;;10.80;99.90;;;;;;5065084;28;20088;-84
2023/05/19 05:51:20;;;;;;;5.90;3.33;;;10.60;99.90;;;;;;5067397;28;20532;-84
2023/05/19 05:53:52;;;;;;;7.03;3.00;;;10.60;99.90;;;;;;5065794;28;20044;-84
2023/05/19 05:56:18;;;;;;;7.00;2.17;;;10.70;99.90;;;;;;5065192;28;20080;-84
2023/05/19 05:58:44;;;;;;;10.98;2.70;;;10.80;99.90;;;;;;5066582;28;20094;-84
2023/05/19 06:01:10;;;;;;;10.85;3.25;;;10.90;99.90;;;;;;5066449;28;20040;-84
2023/05/19 06:03:43;;;;;;;11.27;3.55;;;11.00;99.90;;;;;;5067330;28;20055;-84
2023/05/19 06:06:10;;;;;;;7.97;3.00;;;11.10;99.90;;;;;;5048427;28;20086;-84
2023/05/19 06:08:36;;;;;;;6.93;2.90;;;11.20;99.90;;;;;;5066421;28;20092;-84
2023/05/19 06:11:08;;;;;;;13.02;2.83;;;11.30;99.90;;;;;;5049287;28;20052;-84
2023/05/19 06:13:35;;;;;;;9.00;3.03;;;11.40;99.90;;;;;;5066429;28;20577;-84
2023/05/19 06:16:01;;;;;;;5.57;3.10;;;11.50;99.90;;;;;;5066225;28;20040;-83
2023/05/19 06:18:27;;;;;;;5.63;2.58;;;11.60;99.90;;;;;;5065027;28;20063;-84
2023/05/19 06:20:53;;;;;;;7.50;2.85;;;11.70;99.90;;;;;;5066515;28;20044;-84
2023/05/19 06:23:19;;;;;;;9.43;3.33;;;11.80;99.90;;;;;;5031722;28;20055;-84
2023/05/19 06:25:44;;;;;;;7.32;3.45;;;11.90;99.90;;;;;;5066412;28;20102;-83
2023/05/19 06:28:10;;;;;;;8.27;4.97;;;11.90;99.90;;;;;;5049324;28;20553;-83
2023/05/19 06:30:36;;;;;;;8.15;3.17;;;12.10;99.90;;;;;;5047959;28;20142;-83
2023/05/19 06:33:02;;;;;;;10.75;3.70;;;12.10;99.90;;;;;;5065711;28;20044;-84
2023/05/19 06:35:29;;;;;;;9.68;2.90;;;12.20;99.90;;;;;;5048163;28;20036;-83
2023/05/19 06:37:55;;;;;;;9.05;3.05;;;12.30;99.90;;;;;;5066287;28;20048;-83
2023/05/19 06:40:21;;;;;;;6.82;2.67;;;12.40;99.90;;;;;;5064508;28;20156;-83
2023/05/19 06:42:47;;;;;;;9.05;2.42;;;12.50;99.90;;;;;;5066335;28;20124;-83
2023/05/19 06:45:12;;;;;;;6.70;2.22;;;12.50;99.90;;;;;;5065487;28;20493;-84
2023/05/19 06:47:41;;;;;;;8.55;2.38;;;12.60;99.90;;;;;;5047687;28;20055;-83
2023/05/19 06:50:08;;;;;;;9.40;1.95;;;12.70;99.90;;;;;;5065750;28;20049;-83
2023/05/19 06:52:34;;;;;;;10.90;1.95;;;12.80;99.90;;;;;;5030537;28;20055;-83
2023/05/19 06:55:00;;;;;;;6.78;1.88;;;13.20;99.90;;;;;;5049614;28;20115;-83
2023/05/19 06:57:25;;;;;;;10.82;2.72;;;12.90;99.90;;;;;;5064066;28;20051;-83
2023/05/19 06:59:51;;;;;;;6.65;1.92;;;12.90;99.90;;;;;;5049355;28;20051;-83
2023/05/19 07:02:17;;;;;;;5.78;1.63;;;13.00;99.90;;;;;;5065255;28;20124;-83
2023/05/19 07:04:42;;;;;;;6.97;1.83;;;13.10;99.90;;;;;;5047884;28;20580;-83
2023/05/19 07:07:08;;;;;;;6.05;1.83;;;13.20;99.90;;;;;;5065322;28;20087;-83
2023/05/19 07:09:34;;;;;;;6.35;1.63;;;13.30;99.90;;;;;;5063407;28;20036;-83
2023/05/19 07:12:00;;;;;;;4.88;1.50;;;13.40;99.90;;;;;;5049114;28;20105;-83
2023/05/19 07:14:26;;;;;;;5.85;1.58;;;13.50;99.90;;;;;;5047865;28;20048;-83
2023/05/19 07:16:51;;;;;;;2.90;1.42;;;13.60;99.90;;;;;;5066433;28;20436;-83
2023/05/19 07:19:20;;;;;;;5.15;1.85;;;13.60;99.90;;;;;;5047771;28;20041;-83
2023/05/19 07:21:47;;;;;;;2.83;1.13;;;13.80;99.90;;;;;;5047299;28;20502;-83
2023/05/19 07:24:12;;;;;;;6.13;2.75;;;13.90;99.90;;;;;;5065646;28;20375;-83
2023/05/19 07:26:39;;;;;;;4.28;1.50;;;14.00;99.90;;;;;;5062888;28;20127;-83
2023/05/19 07:29:05;;;;;;;6.55;1.98;;;14.10;99.90;;;;;;5066742;28;20044;-83
2023/05/19 07:31:31;;;;;;;8.23;1.83;;;14.20;99.90;;;;;;5063153;28;20116;-80
2023/05/19 07:33:57;;;;;;;5.22;1.55;;;14.30;99.90;;;;;;5065311;28;20036;-83
2023/05/19 07:36:23;;;;;;;6.05;1.73;;;14.50;99.90;;;;;;5063846;28;20106;-83
2023/05/19 07:38:49;;;;;;;4.70;1.70;;;14.50;99.90;;;;;;5047084;28;20107;-83
2023/05/19 07:41:14;;;;;;;3.40;1.20;;;14.60;99.90;;;;;;5065133;28;20040;-84
2023/05/19 07:43:41;;;;;;;6.35;1.70;;;14.70;99.90;;;;;;5029641;28;20482;-83
2023/05/19 07:46:06;;;;;;;4.20;1.45;;;14.80;99.90;;;;;;5064729;28;20040;-82
2023/05/19 07:48:32;;;;;;;6.43;1.67;;;14.90;99.90;;;;;;5046947;28;20040;-82
2023/05/19 07:50:57;;;;;;;4.18;1.58;;;14.90;99.90;;;;;;5048594;28;20469;-84
2023/05/19 07:53:23;;;;;;;5.78;1.60;;;15.00;99.90;;;;;;5030980;28;20055;-81
2023/05/19 07:55:49;;;;;;;2.90;1.30;;;15.00;99.90;;;;;;5047328;28;20444;-81
2023/05/19 07:58:15;;;;;;;3.55;1.35;;;15.20;99.90;;;;;;5064296;28;20045;-81
2023/05/19 08:00:44;;;;;;;5.43;1.50;;;15.30;99.90;;;;;;5062938;28;20040;-81
2023/05/19 08:03:10;;;;;;;3.90;0.80;;;15.30;99.90;;;;;;5064664;28;20045;-81
2023/05/19 08:05:36;;;;;;;2.40;0.70;;;15.50;99.90;;;;;;5062678;28;20087;-82
2023/05/19 08:08:03;;;;;;;9.68;1.15;;;15.60;99.90;;;;;;5064306;28;20045;-82
2023/05/19 08:10:28;;;;;;;6.03;1.38;;;15.70;99.90;;;;;;5063457;28;20139;-82
2023/05/19 08:12:54;;;;;;;4.50;0.73;;;15.80;99.90;;;;;;5046859;28;20593;-82
2023/05/19 08:15:20;;;;;;;3.53;1.27;;;15.80;99.90;;;;;;5014249;28;20059;-82
2023/05/19 08:17:46;;;;;;;5.18;1.58;;;15.90;99.90;;;;;;5045852;28;20760;-82
2023/05/19 08:20:12;;;;;;;6.40;1.30;;;16.00;99.90;;;;;;5063945;28;20086;-83
2023/05/19 08:22:38;;;;;;;7.65;1.52;;;16.10;99.90;;;;;;5062869;28;20139;-82
2023/05/19 08:25:05;;;;;;;5.13;1.38;;;16.10;99.90;;;;;;5047383;28;20050;-82
2023/05/19 08:27:31;;;;;;;4.18;1.13;;;16.20;99.90;;;;;;5046102;28;20052;-82
2023/05/19 08:29:57;;;;;;;5.60;1.40;;;16.30;99.90;;;;;;5063074;28;20041;-82
2023/05/19 08:32:23;;;;;;;5.57;1.10;;;16.50;99.90;;;;;;5063456;28;20051;-82
2023/05/19 08:34:49;;;;;;;5.95;1.00;;;16.50;99.90;;;;;;5045663;28;20387;-81
2023/05/19 08:37:15;;;;;;;2.35;1.10;;;16.50;99.90;;;;;;5063558;28;20135;-82
2023/05/19 08:39:40;;;;;;;3.75;1.50;;;16.50;99.90;;;;;;5045521;28;20144;-82
2023/05/19 08:42:08;;;;;;;4.47;1.70;;;16.70;99.90;;;;;;5064340;28;20036;-82
2023/05/19 08:44:38;;;;;;;5.95;1.35;;;16.80;99.90;;;;;;5062336;28;20509;-82
2023/05/19 08:47:05;;;;;;;4.18;1.27;;;16.80;99.90;;;;;;5063559;28;20447;-82
2023/05/19 08:49:36;;;;;;;6.53;1.55;;;16.90;99.90;;;;;;5046555;28;20041;-82
2023/05/19 08:52:15;;;;;;;6.53;1.48;;;17.00;99.90;;;;;;5045265;28;20803;-82
2023/05/19 08:55:08;;;;;;;4.47;1.17;;;17.10;99.90;;;;;;5063686;28;20150;-82
2023/05/19 08:57:35;;;;;;;5.80;1.35;;;17.30;99.90;;;;;;5063308;28;20048;-82
2023/05/19 09:00:04;;;;;;;4.75;1.05;;;17.50;99.90;;;;;;5062884;28;20049;-82
2023/05/19 09:02:31;;;;;;;6.90;1.58;;;17.60;99.90;;;;;;5063554;28;20037;-81
2023/05/19 09:04:57;;;;;;;4.13;1.65;;;18.90;99.90;;;;;;5045193;28;20048;-82
2023/05/19 09:07:24;;;;;;;5.18;1.20;;;17.70;99.90;;;;;;5030470;28;20048;-82
2023/05/19 09:09:50;;;;;;;5.20;1.30;;;17.70;99.90;;;;;;5045454;28;20040;-81
2023/05/19 09:12:16;;;;;;;4.20;1.77;;;17.70;99.90;;;;;;5047309;28;20489;-81
2023/05/19 09:14:42;;;;;;;5.00;1.60;;;17.80;99.90;;;;;;5062039;28;20052;-82
2023/05/19 09:17:08;;;;;;;4.97;1.67;;;17.80;99.90;;;;;;5029868;28;20059;-82
2023/05/19 09:19:34;;;;;;;3.80;1.27;;;17.80;99.90;;;;;;5062826;28;20094;-81
2023/05/19 09:22:05;;;;;;;5.70;1.13;;;17.80;99.90;;;;;;5044722;28;20044;-82
2023/05/19 09:24:32;;;;;;;6.05;1.73;;;17.90;99.90;;;;;;5047423;28;20127;-82
2023/05/19 09:26:58;;;;;;;5.18;1.13;;;18.00;99.90;;;;;;5044709;28;20096;-82
2023/05/19 09:29:24;;;;;;;5.53;1.40;;;18.00;99.90;;;;;;5047379;28;20116;-82
2023/05/19 09:31:52;;;;;;;4.07;1.55;;;18.10;99.90;;;;;;5045198;28;20051;-82
2023/05/19 09:34:20;;;;;;;4.15;1.10;;;18.10;99.70;;;;;;5029973;28;20087;-82
2023/05/19 09:36:50;;;;;;;1.98;1.00;;;18.10;99.30;;;;;;5063828;28;20428;-82
2023/05/19 09:39:17;;;;;;;4.35;1.33;;;18.20;99.20;;;;;;5046238;28;20059;-82
2023/05/19 09:41:44;;;;;;;6.25;1.45;;;18.20;99.00;;;;;;5063777;28;20520;-82
2023/05/19 09:44:31;;;;;;;6.57;1.48;;;18.30;98.80;;;;;;5045356;28;20076;-83
2023/05/19 09:46:57;;;;;;;4.72;1.33;;;18.20;98.00;;;;;;5048510;28;20456;-82
2023/05/19 09:49:28;;;;;;;3.35;1.17;;;18.20;98.40;;;;;;5062620;28;20075;-82
2023/05/19 09:52:02;;;;;;;3.33;1.10;;;18.10;98.00;;;;;;5045483;28;20045;-82
2023/05/19 09:54:30;;;;;;;4.25;1.40;;;18.20;98.00;;;;;;5047178;28;20054;-83
2023/05/19 09:57:04;;;;;;;3.50;1.10;;;18.30;98.30;;;;;;5061721;28;20052;-82
2023/05/19 09:59:30;;;;;;;3.38;1.10;;;18.40;97.00;;;;;;5063622;28;20049;-83
2023/05/19 10:01:57;;;;;;;4.07;1.17;;;18.40;97.00;;;;;;5045368;28;20113;-84
2023/05/19 10:04:25;;;;;;;3.95;1.38;;;18.50;97.10;;;;;;5063134;28;20044;-82
2023/05/19 10:06:58;;;;;;;5.03;1.45;;;18.60;96.90;;;;;;5046299;28;20044;-82
2023/05/19 10:09:28;;;;;;;3.22;1.23;;;18.70;96.80;;;;;;5060995;28;20067;-82
2023/05/19 10:11:56;;;;;;;3.42;1.45;;;18.80;96.90;;;;;;5063577;28;20089;-82
2023/05/19 10:14:25;;;;;;;4.70;1.27;;;18.90;96.80;;;;;;5060600;28;20087;-82
2023/05/19 10:16:52;;;;;;;6.25;1.73;;;19.00;97.00;;;;;;5047124;28;20045;-82
2023/05/19 10:19:26;;;;;;;4.70;1.30;;;19.00;96.30;;;;;;5061901;28;20047;-82
2023/05/19 10:21:52;;;;;;;6.72;1.42;;;20.00;95.90;;;;;;5062766;28;20044;-83
2023/05/19 10:24:18;;;;;;;5.55;1.30;;;19.00;95.80;;;;;;5063135;28;20127;-83
2023/05/19 10:26:54;;;;;;;2.72;0.93;;;19.10;95.90;;;;;;5027731;28;20131;-83
2023/05/19 10:29:26;;;;;;;4.22;1.10;;;19.10;93.40;;;;;;5046122;28;20138;-83
2023/05/19 10:31:53;;;;;;;3.40;1.20;;;19.30;93.70;;;;;;5062523;28;20579;-83
2023/05/19 10:34:49;;;;;;;4.38;1.20;;;19.40;94.20;;;;;;5066285;28;20127;-83
2023/05/19 10:37:31;;;;;;;2.13;0.85;;;19.50;94.20;;;;;;5050122;28;20048;-83
2023/05/19 10:39:57;;;;;;;6.97;1.52;;;19.70;93.80;;;;;;5064317;28;20052;-83
2023/05/19 10:42:33;;;;;;;6.95;1.58;;;19.90;93.80;;;;;;5066639;28;20040;-83
2023/05/19 10:45:21;;;;;;;5.18;1.02;;;19.90;93.40;;;;;;5048363;28;20135;-83
2023/05/19 10:47:49;;;;;;;3.80;0.93;;;20.00;91.70;;;;;;5064554;28;20040;-83
2023/05/19 10:50:16;;;;;;;8.13;1.70;;;19.90;92.10;;;;;;5050342;28;20341;-83
2023/05/19 10:52:43;;;;;;;2.72;0.90;;;19.80;91.10;;;;;;5047981;28;20633;-83
2023/05/19 10:55:16;;;;;;;3.15;1.13;;;19.70;90.70;;;;;;5017342;28;20043;-83
2023/05/19 10:58:02;;;;;;;2.90;1.15;;;19.80;91.10;;;;;;5047649;28;20042;-83
2023/05/19 11:00:31;;;;;;;2.30;1.00;;;20.00;90.80;;;;;;5064843;28;20068;-82
2023/05/19 11:03:12;;;;;;;3.63;0.90;;;20.10;90.60;;;;;;5049195;28;20048;-83
2023/05/19 11:05:38;;;;;;;5.80;1.40;;;20.10;88.10;;;;;;5064449;28;20115;-82
2023/05/19 11:08:10;;;;;;;4.10;1.10;;;20.20;88.60;;;;;;5065821;28;20592;-83
2023/05/19 11:10:36;;;;;;;5.95;1.38;;;20.40;88.10;;;;;;5064435;28;20091;-82
2023/05/19 11:13:03;;;;;;;2.53;1.00;;;20.50;88.10;;;;;;5048404;28;20141;-83
2023/05/19 11:15:34;;;;;;;2.13;1.20;;;20.60;85.90;;;;;;5065194;28;20052;-83
2023/05/19 11:18:01;;;;;;;5.18;1.90;;;20.80;84.50;;;;;;5064304;28;20064;-82
2023/05/19 11:20:28;;;;;;;4.10;1.25;;;20.70;83.90;;;;;;5049076;28;20459;-82
2023/05/19 11:23:20;;;;;;;5.05;1.13;;;20.60;84.30;;;;;;5063307;28;20041;-83
2023/05/19 11:25:48;;;;;;;4.37;1.87;;;20.70;83.20;;;;;;5044205;28;20056;-82
2023/05/19 11:28:18;;;;;;;6.18;1.70;;;20.70;85.30;;;;;;5048378;28;20352;-83
2023/05/19 11:30:45;;;;;;;3.88;1.50;;;20.70;83.00;;;;;;5064004;28;20044;-82
2023/05/19 11:33:12;;;;;;;7.85;1.30;;;20.70;80.80;;;;;;5049137;28;20349;-83
2023/05/19 11:35:39;;;;;;;1.90;0.80;;;20.70;81.00;;;;;;5047773;28;20052;-83
2023/05/19 11:38:06;;;;;;;4.55;1.33;;;20.90;80.50;;;;;;5066042;28;20445;-83
2023/05/19 11:40:32;;;;;;;4.45;1.20;;;21.00;79.20;;;;;;5064123;28;20071;-83
2023/05/19 11:42:58;;;;;;;6.47;1.42;;;21.20;79.20;;;;;;5031178;28;20463;-83
2023/05/19 11:45:30;;;;;;;5.18;1.13;;;21.50;79.00;;;;;;5065656;28;20036;-83
2023/05/19 11:47:57;;;;;;;5.20;1.20;;;21.60;77.00;;;;;;5064484;28;20051;-83
2023/05/19 11:50:23;;;;;;;3.92;1.27;;;21.70;76.90;;;;;;5047989;28;20302;-82
2023/05/19 11:52:53;;;;;;;3.70;1.13;;;21.70;74.30;;;;;;5030870;28;20370;-83
2023/05/19 11:55:22;;;;;;;3.55;1.83;;;21.80;74.30;;;;;;5049527;28;20101;-82
2023/05/19 11:58:06;;;;;;;5.32;1.48;;;21.90;73.90;;;;;;5031728;28;20080;-83
2023/05/19 12:00:37;;;;;;;6.30;1.45;;;21.90;69.30;;;;;;5047201;28;20052;-82
2023/05/19 12:03:04;;;;;;;4.30;1.00;;;21.80;71.80;;;;;;5065676;28;20098;-83
2023/05/19 12:05:30;;;;;;;2.75;1.05;;;21.90;72.20;;;;;;5063135;28;20052;-83
2023/05/19 12:07:56;;;;;;;5.75;1.27;;;21.80;70.80;;;;;;5064695;28;20493;-83
2023/05/19 12:10:23;;;;;;;4.82;1.00;;;21.80;70.90;;;;;;5063401;28;20036;-83
2023/05/19 12:12:52;;;;;;;3.42;1.02;;;21.90;71.60;;;;;;5063933;28;20052;-83
2023/05/19 12:15:22;;;;;;;3.60;0.98;;;22.00;69.30;;;;;;5047687;28;20044;-83
2023/05/19 12:18:00;;;;;;;10.52;2.50;;;21.90;68.70;;;;;;5062981;28;20036;-83
2023/05/19 12:20:27;;;;;;;10.43;1.52;;;22.10;69.60;;;;;;5064716;28;20074;-83
2023/05/19 12:22:56;;;;;;;6.90;1.08;;;22.10;68.40;;;;;;5062117;28;20135;-83
2023/05/19 12:25:23;;;;;;;3.25;0.75;;;22.20;68.00;;;;;;5047321;28;20052;-82
2023/05/19 12:27:51;;;;;;;7.05;1.10;;;22.30;67.80;;;;;;5063241;28;20048;-83
2023/05/19 12:30:18;;;;;;;3.42;1.02;;;22.30;68.00;;;;;;5062331;28;20059;-83
2023/05/19 12:32:45;;;;;;;5.65;1.35;;;22.40;67.70;;;;;;5064127;28;20052;-83
2023/05/19 12:35:11;;;;;;;3.67;1.10;;;22.50;67.20;;;;;;5062758;28;20052;-83
2023/05/19 12:37:41;;;;;;;4.10;1.17;;;22.60;66.90;;;;;;5047471;28;20539;-83
2023/05/19 12:40:08;;;;;;;3.72;1.00;;;22.70;66.60;;;;;;5045558;28;20494;-83
2023/05/19 12:42:34;;;;;;;6.13;1.50;;;22.80;66.40;;;;;;5046304;28;20131;-83
2023/05/19 12:45:03;;;;;;;4.57;1.17;;;22.80;65.70;;;;;;5046365;28;20189;-83
2023/05/19 12:47:38;;;;;;;4.97;1.33;;;22.80;65.60;;;;;;5045585;28;20376;-83
2023/05/19 12:50:07;;;;;;;4.40;1.15;;;22.90;65.00;;;;;;5064402;28;20048;-83
2023/05/19 12:52:47;;;;;;;5.97;1.60;;;22.70;65.70;;;;;;5062100;28;20076;-83
2023/05/19 12:55:15;;;;;;;4.03;1.08;;;22.50;65.50;;;;;;5063417;28;20055;-82